createdAt,value
2018-10-17T00:01:58.404Z,38.93
2018-10-17T00:04:27.572Z,37.77
2018-10-17T00:06:56.761Z,41.30
2018-10-17T00:09:25.924Z,36.27
2018-10-17T00:11:55.095Z,35.77
2018-10-17T00:14:24.233Z,36.67
2018-10-17T00:16:53.456Z,37.73
2018-10-17T00:19:22.602Z,34.60
2018-10-17T00:21:51.750Z,34.87
2018-10-17T00:24:20.940Z,36.67
2018-10-17T00:26:50.309Z,34.23
2018-10-17T00:29:19.460Z,35.03
2018-10-17T00:31:48.641Z,36.50
2018-10-17T00:34:17.770Z,34.80
2018-10-17T00:36:47.056Z,34.97
2018-10-17T00:39:16.194Z,34.77
2018-10-17T00:41:45.363Z,34.43
2018-10-17T00:44:14.513Z,33.00
2018-10-17T00:46:43.677Z,32.70
2018-10-17T00:49:12.946Z,34.00
2018-10-17T00:51:42.033Z,36.27
2018-10-17T00:54:11.246Z,35.53
2018-10-17T00:56:40.498Z,35.87
2018-10-17T00:59:11.852Z,34.87
2018-10-17T01:01:40.992Z,37.03
2018-10-17T01:04:10.349Z,35.30
2018-10-17T01:06:40.051Z,34.30
2018-10-17T01:09:11.794Z,32.73
2018-10-17T01:11:41.301Z,37.07
2018-10-17T01:14:10.814Z,34.87
2018-10-17T01:16:39.962Z,34.93
2018-10-17T01:19:09.311Z,32.67
2018-10-17T01:21:38.399Z,34.73
2018-10-17T01:24:07.549Z,34.73
2018-10-17T01:26:36.705Z,35.90
2018-10-17T01:29:06.208Z,33.63
2018-10-17T01:31:35.355Z,36.23
2018-10-17T01:34:04.640Z,34.60
2018-10-17T01:36:33.817Z,35.53
2018-10-17T01:39:03.799Z,36.10
2018-10-17T01:41:32.932Z,37.33
2018-10-17T01:44:02.089Z,37.20
2018-10-17T01:46:31.277Z,35.37
2018-10-17T01:49:00.485Z,33.60
2018-10-17T01:51:29.863Z,34.87
2018-10-17T01:53:59.042Z,34.37
2018-10-17T01:56:28.181Z,34.50
2018-10-17T01:58:57.343Z,34.57
2018-10-17T02:01:26.535Z,35.03
2018-10-17T02:03:55.653Z,33.80
2018-10-17T02:06:24.807Z,33.17
2018-10-17T02:08:53.946Z,35.20
2018-10-17T02:11:23.118Z,35.73
2018-10-17T02:13:52.250Z,35.97
2018-10-17T02:16:21.406Z,33.23
2018-10-17T02:18:50.541Z,33.90
2018-10-17T02:21:19.673Z,34.73
2018-10-17T02:23:48.830Z,36.37
2018-10-17T02:26:17.974Z,35.50
2018-10-17T02:28:47.168Z,34.70
2018-10-17T02:31:16.404Z,33.23
2018-10-17T02:33:45.460Z,30.90
2018-10-17T02:36:14.634Z,31.50
2018-10-17T02:38:43.809Z,33.13
2018-10-17T02:41:13.557Z,34.20
2018-10-17T02:43:42.605Z,34.33
2018-10-17T02:46:11.785Z,33.60
2018-10-17T02:48:40.964Z,32.73
2018-10-17T02:51:10.155Z,32.20
2018-10-17T02:53:39.306Z,33.67
2018-10-17T02:56:08.454Z,33.97
2018-10-17T02:58:37.581Z,35.67
2018-10-17T03:01:06.857Z,35.50
2018-10-17T03:03:36.074Z,34.40
2018-10-17T03:06:05.379Z,35.53
2018-10-17T03:08:34.582Z,35.07
2018-10-17T03:11:03.761Z,34.40
2018-10-17T03:13:32.866Z,35.40
2018-10-17T03:16:02.019Z,34.87
2018-10-17T03:18:31.171Z,35.20
2018-10-17T03:21:00.312Z,36.13
2018-10-17T03:23:29.531Z,33.43
2018-10-17T03:25:58.814Z,33.67
2018-10-17T03:28:28.554Z,33.73
2018-10-17T03:30:58.006Z,33.40
2018-10-17T03:33:27.053Z,34.63
2018-10-17T03:35:56.264Z,33.80
2018-10-17T03:38:25.394Z,33.93
2018-10-17T03:40:54.609Z,34.30
2018-10-17T03:43:23.715Z,35.30
2018-10-17T03:45:52.899Z,34.47
2018-10-17T03:48:22.050Z,32.30
2018-10-17T03:50:51.228Z,33.40
2018-10-17T03:53:20.465Z,34.90
2018-10-17T03:55:49.633Z,34.10
2018-10-17T03:58:18.809Z,34.03
2018-10-17T04:00:47.969Z,33.53
2018-10-17T04:03:17.143Z,33.70
2018-10-17T04:05:46.338Z,34.27
2018-10-17T04:08:15.472Z,32.23
2018-10-17T04:10:44.694Z,32.10
2018-10-17T04:13:13.951Z,33.77
2018-10-17T04:15:43.079Z,30.97
2018-10-17T04:18:12.258Z,35.37
2018-10-17T04:20:41.487Z,34.10
2018-10-17T04:23:10.686Z,34.10
2018-10-17T04:25:39.826Z,33.03
2018-10-17T04:28:08.991Z,33.60
2018-10-17T04:30:38.161Z,32.80
2018-10-17T04:33:07.562Z,33.37
2018-10-17T04:35:36.812Z,36.17
2018-10-17T04:38:06.056Z,36.67
2018-10-17T04:40:35.210Z,33.77
2018-10-17T04:43:04.447Z,33.80
2018-10-17T04:45:33.603Z,32.20
2018-10-17T04:48:02.764Z,33.67
2018-10-17T04:50:31.947Z,33.37
2018-10-17T04:53:01.151Z,33.43
2018-10-17T04:55:30.329Z,31.80
2018-10-17T04:57:59.498Z,33.90
2018-10-17T05:00:28.907Z,32.80
2018-10-17T05:02:58.195Z,33.10
2018-10-17T05:05:27.347Z,32.20
2018-10-17T05:07:56.561Z,31.57
2018-10-17T05:10:25.738Z,30.97
2018-10-17T05:12:54.979Z,30.70
2018-10-17T05:15:24.242Z,29.90
2018-10-17T05:17:53.856Z,30.23
2018-10-17T05:20:23.009Z,31.63
2018-10-17T05:22:52.212Z,30.87
2018-10-17T05:25:21.408Z,31.20
2018-10-17T05:27:50.554Z,33.73
2018-10-17T05:30:19.797Z,32.53
2018-10-17T05:32:49.099Z,33.00
2018-10-17T05:35:18.281Z,30.07
2018-10-17T05:37:47.741Z,28.17
2018-10-17T05:40:16.790Z,29.00
2018-10-17T05:42:45.964Z,30.63
2018-10-17T05:45:15.399Z,30.30
2018-10-17T05:47:44.581Z,30.10
2018-10-17T05:50:13.752Z,30.00
2018-10-17T05:52:42.934Z,31.57
2018-10-17T05:55:12.200Z,29.63
2018-10-17T05:57:41.333Z,31.90
2018-10-17T06:00:10.575Z,30.93
2018-10-17T06:02:39.818Z,32.30
2018-10-17T06:05:09.572Z,28.77
2018-10-17T06:07:38.740Z,30.33
2018-10-17T06:10:09.297Z,34.40
2018-10-17T06:12:38.382Z,33.17
2018-10-17T06:15:07.922Z,32.47
2018-10-17T06:17:37.086Z,30.80
2018-10-17T06:20:06.860Z,32.13
2018-10-17T06:22:36.096Z,32.50
2018-10-17T06:25:05.936Z,31.73
2018-10-17T06:27:35.130Z,33.97
2018-10-17T06:30:04.408Z,33.67
2018-10-17T06:32:33.604Z,35.13
2018-10-17T06:35:02.841Z,36.03
2018-10-17T06:37:32.044Z,35.57
2018-10-17T06:40:01.210Z,35.50
2018-10-17T06:42:30.386Z,35.10
2018-10-17T06:44:59.736Z,33.87
2018-10-17T06:47:28.925Z,37.20
2018-10-17T06:49:58.072Z,36.57
2018-10-17T06:52:27.300Z,35.10
2018-10-17T06:54:56.601Z,36.60
2018-10-17T06:57:25.722Z,34.77
2018-10-17T06:59:54.885Z,34.83
2018-10-17T07:02:24.142Z,36.97
2018-10-17T07:04:53.296Z,33.90
2018-10-17T07:07:22.502Z,32.57
2018-10-17T07:09:52.068Z,31.97
2018-10-17T07:12:21.287Z,31.77
2018-10-17T07:14:50.474Z,30.90
2018-10-17T07:17:19.684Z,30.90
2018-10-17T07:19:48.908Z,31.23
2018-10-17T07:22:18.133Z,30.57
2018-10-17T07:24:47.273Z,29.47
2018-10-17T07:27:16.491Z,30.53
2018-10-17T07:29:45.993Z,32.30
2018-10-17T07:32:15.103Z,32.40
2018-10-17T07:34:44.326Z,33.57
2018-10-17T07:37:13.577Z,33.80
2018-10-17T07:39:42.858Z,33.53
2018-10-17T07:42:12.139Z,36.97
2018-10-17T07:44:41.274Z,36.73
2018-10-17T07:47:10.548Z,37.80
2018-10-17T07:49:39.686Z,36.67
2018-10-17T07:52:08.916Z,36.73
2018-10-17T07:54:38.158Z,39.30
2018-10-17T07:57:07.939Z,38.63
2018-10-17T07:59:37.204Z,40.10
2018-10-17T08:02:06.413Z,39.70
2018-10-17T08:04:35.640Z,39.10
2018-10-17T08:07:05.595Z,40.00
2018-10-17T08:09:34.945Z,38.50
2018-10-17T08:12:04.804Z,37.83
2018-10-17T08:14:34.868Z,38.50
2018-10-17T08:17:04.238Z,39.03
2018-10-17T08:19:33.465Z,38.90
2018-10-17T08:22:02.647Z,40.10
2018-10-17T08:24:31.951Z,39.00
2018-10-17T08:27:01.261Z,38.50
2018-10-17T08:29:30.483Z,40.93
2018-10-17T08:31:59.774Z,40.70
2018-10-17T08:34:29.000Z,39.80
2018-10-17T08:36:58.380Z,37.70
2018-10-17T08:39:27.466Z,39.23
2018-10-17T08:41:56.646Z,40.80
2018-10-17T08:44:25.884Z,40.73
2018-10-17T08:46:55.158Z,40.17
2018-10-17T08:49:24.404Z,42.20
2018-10-17T08:51:53.614Z,39.67
2018-10-17T08:54:22.986Z,36.97
2018-10-17T08:56:52.194Z,37.90
2018-10-17T08:59:21.435Z,39.60
2018-10-17T09:01:50.785Z,39.00
2018-10-17T09:04:19.989Z,40.87
2018-10-17T09:06:49.276Z,38.93
2018-10-17T09:09:18.574Z,38.47
2018-10-17T09:11:47.755Z,38.37
2018-10-17T09:14:17.030Z,38.63
2018-10-17T09:16:46.713Z,37.60
2018-10-17T09:19:15.865Z,42.70
2018-10-17T09:21:45.733Z,41.50
2018-10-17T09:24:14.862Z,39.90
2018-10-17T09:26:43.955Z,41.07
2018-10-17T09:29:13.203Z,40.60
2018-10-17T09:31:42.512Z,41.67
2018-10-17T09:34:11.754Z,41.53
2018-10-17T09:36:40.892Z,37.97
2018-10-17T09:39:11.641Z,39.60
2018-10-17T09:41:41.055Z,39.70
2018-10-17T09:44:10.204Z,40.80
2018-10-17T09:46:39.490Z,42.40
2018-10-17T09:49:09.030Z,39.57
2018-10-17T09:51:38.191Z,42.10
2018-10-17T09:54:07.549Z,42.23
2018-10-17T09:56:36.742Z,42.50
2018-10-17T09:59:05.924Z,42.03
2018-10-17T10:01:40.465Z,43.77
2018-10-17T10:04:09.748Z,42.00
2018-10-17T10:06:39.053Z,44.77
2018-10-17T10:09:09.505Z,41.00
2018-10-17T10:11:39.170Z,40.07
2018-10-17T10:14:08.510Z,42.53
2018-10-17T10:16:38.043Z,40.67
2018-10-17T10:19:07.732Z,39.93
2018-10-17T10:21:37.609Z,41.80
2018-10-17T10:24:07.029Z,43.67
2018-10-17T10:26:36.800Z,41.93
2018-10-17T10:29:06.202Z,41.00
2018-10-17T10:31:35.768Z,42.00
2018-10-17T10:34:05.627Z,42.20
2018-10-17T10:36:35.101Z,41.87
2018-10-17T10:39:06.882Z,41.27
2018-10-17T10:41:37.023Z,39.20
2018-10-17T10:44:06.678Z,39.90
2018-10-17T10:46:36.280Z,40.00
2018-10-17T10:49:06.252Z,41.30
2018-10-17T10:51:36.149Z,38.13
2018-10-17T10:54:05.750Z,41.97
2018-10-17T10:56:35.026Z,39.00
2018-10-17T10:59:04.437Z,40.30
2018-10-17T11:01:34.222Z,38.20
2018-10-17T11:04:04.187Z,39.67
2018-10-17T11:06:33.579Z,36.30
2018-10-17T11:09:03.793Z,36.50
2018-10-17T11:11:33.033Z,32.73
2018-10-17T11:14:02.418Z,35.80
2018-10-17T11:16:31.548Z,32.90
2018-10-17T11:19:02.201Z,31.30
2018-10-17T11:21:31.652Z,29.40
2018-10-17T11:24:02.787Z,32.23
2018-10-17T11:26:31.935Z,29.87
2018-10-17T11:29:01.172Z,31.13
2018-10-17T11:31:30.719Z,32.90
2018-10-17T11:33:59.796Z,32.50
2018-10-17T11:36:28.946Z,30.57
2018-10-17T11:38:58.261Z,29.20
2018-10-17T11:41:27.506Z,25.80
2018-10-17T11:43:56.651Z,29.13
2018-10-17T11:46:26.284Z,28.80
2018-10-17T11:48:55.453Z,29.33
2018-10-17T11:51:24.644Z,29.40
2018-10-17T11:53:53.958Z,29.90
2018-10-17T11:56:23.192Z,31.40
2018-10-17T11:58:52.497Z,30.90
2018-10-17T12:01:21.718Z,30.33
2018-10-17T12:03:51.699Z,28.40
2018-10-17T12:06:20.781Z,30.27
2018-10-17T12:08:49.953Z,29.00
2018-10-17T12:11:19.193Z,27.37
2018-10-17T12:13:48.428Z,26.87
2018-10-17T12:16:17.621Z,29.23
2018-10-17T12:18:46.781Z,35.03
2018-10-17T12:21:15.998Z,31.03
2018-10-17T12:23:45.251Z,29.13
2018-10-17T12:26:14.417Z,31.33
2018-10-17T12:28:43.632Z,30.50
2018-10-17T12:31:12.855Z,30.87
2018-10-17T12:33:42.858Z,30.70
2018-10-17T12:36:12.044Z,32.40
2018-10-17T12:38:41.243Z,31.40
2018-10-17T12:41:10.663Z,33.70
2018-10-17T12:43:41.724Z,33.20
2018-10-17T12:46:10.901Z,34.57
2018-10-17T12:48:40.198Z,32.40
2018-10-17T12:51:09.517Z,31.50
2018-10-17T12:53:38.778Z,33.80
2018-10-17T12:56:08.015Z,30.60
2018-10-17T12:58:37.274Z,30.00
2018-10-17T13:01:09.784Z,32.67
2018-10-17T13:03:39.033Z,36.87
2018-10-17T13:06:08.393Z,32.67
2018-10-17T13:08:37.742Z,34.90
2018-10-17T13:11:07.283Z,34.67
2018-10-17T13:13:36.635Z,36.90
2018-10-17T13:16:05.862Z,37.77
2018-10-17T13:18:35.779Z,40.80
2018-10-17T13:21:05.030Z,36.37
2018-10-17T13:23:34.246Z,41.50
2018-10-17T13:26:03.526Z,36.67
2018-10-17T13:28:32.681Z,34.57
2018-10-17T13:31:01.880Z,34.80
2018-10-17T13:33:31.050Z,35.60
2018-10-17T13:36:00.263Z,35.07
2018-10-17T13:38:29.426Z,36.80
2018-10-17T13:40:58.617Z,39.20
2018-10-17T13:43:27.779Z,39.33
2018-10-17T13:45:56.960Z,39.70
2018-10-17T13:48:26.124Z,40.83
2018-10-17T13:50:55.328Z,40.43
2018-10-17T13:53:24.468Z,37.57
2018-10-17T13:55:53.655Z,41.83
2018-10-17T13:58:22.933Z,43.23
2018-10-17T14:00:52.098Z,43.40
2018-10-17T14:03:21.730Z,44.17
2018-10-17T14:05:50.871Z,39.93
2018-10-17T14:08:20.051Z,43.70
2018-10-17T14:10:49.271Z,40.63
2018-10-17T14:13:18.481Z,37.40
2018-10-17T14:15:47.642Z,37.80
2018-10-17T14:18:16.911Z,38.73
2018-10-17T14:20:45.993Z,36.50
2018-10-17T14:23:15.231Z,36.03
2018-10-17T14:25:44.410Z,38.90
2018-10-17T14:28:13.608Z,37.90
2018-10-17T14:30:42.763Z,37.43
2018-10-17T14:33:11.976Z,35.40
2018-10-17T14:35:41.137Z,35.23
2018-10-17T14:38:10.341Z,33.30
2018-10-17T14:40:39.527Z,36.60
2018-10-17T14:43:08.874Z,36.07
2018-10-17T14:45:38.075Z,33.00
2018-10-17T14:48:07.447Z,34.03
2018-10-17T14:50:36.494Z,36.47
2018-10-17T14:53:06.180Z,33.83
2018-10-17T14:55:35.307Z,35.80
2018-10-17T14:58:04.479Z,36.10
2018-10-17T15:00:33.655Z,37.77
2018-10-17T15:03:02.967Z,37.23
2018-10-17T15:05:32.058Z,36.67
2018-10-17T15:08:01.519Z,39.10
2018-10-17T15:10:30.846Z,35.73
2018-10-17T15:12:59.859Z,35.43
2018-10-17T15:15:29.014Z,36.63
2018-10-17T15:17:58.273Z,34.13
2018-10-17T15:20:27.458Z,35.80
2018-10-17T15:22:56.914Z,33.00
2018-10-17T15:25:26.061Z,33.93
2018-10-17T15:27:55.242Z,31.77
2018-10-17T15:30:24.629Z,30.60
2018-10-17T15:32:53.930Z,31.07
2018-10-17T15:35:23.068Z,34.00
2018-10-17T15:37:52.245Z,32.80
2018-10-17T15:40:21.416Z,31.73
2018-10-17T15:42:50.591Z,32.20
2018-10-17T15:45:19.826Z,30.27
2018-10-17T15:47:48.994Z,32.47
2018-10-17T15:50:18.145Z,32.37
2018-10-17T15:52:47.359Z,34.53
2018-10-17T15:55:16.553Z,32.73
2018-10-17T15:57:45.711Z,33.30
2018-10-17T16:00:15.091Z,34.63
2018-10-17T16:02:44.317Z,34.93
2018-10-17T16:05:13.526Z,33.83
2018-10-17T16:07:42.750Z,38.37
2018-10-17T16:10:11.905Z,36.10
2018-10-17T16:12:41.231Z,36.47
2018-10-17T16:15:10.935Z,36.33
2018-10-17T16:17:40.186Z,36.40
2018-10-17T16:20:11.172Z,37.27
2018-10-17T16:22:40.582Z,37.03
2018-10-17T16:25:10.122Z,37.90
2018-10-17T16:27:39.314Z,39.50
2018-10-17T16:30:10.623Z,39.83
2018-10-17T16:32:39.817Z,40.93
2018-10-17T16:35:09.617Z,40.13
2018-10-17T16:37:39.344Z,39.40
2018-10-17T16:40:09.746Z,39.27
2018-10-17T16:42:39.015Z,38.73
2018-10-17T16:45:09.615Z,40.00
2018-10-17T16:47:38.845Z,39.50
2018-10-17T16:50:08.093Z,37.13
2018-10-17T16:52:37.221Z,39.60
2018-10-17T16:55:07.765Z,38.87
2018-10-17T16:57:37.222Z,42.23
2018-10-17T17:00:08.094Z,42.33
2018-10-17T17:02:37.328Z,45.90
2018-10-17T17:05:11.081Z,43.80
2018-10-17T17:07:40.541Z,46.17
2018-10-17T17:10:10.595Z,48.97
2018-10-17T17:12:39.887Z,42.10
2018-10-17T17:15:09.511Z,41.07
2018-10-17T17:17:38.734Z,43.10
2018-10-17T17:20:09.773Z,42.10
2018-10-17T17:22:39.511Z,44.30
2018-10-17T17:25:08.809Z,42.23
2018-10-17T17:27:38.262Z,43.70
2018-10-17T17:30:12.257Z,45.13
2018-10-17T17:32:41.379Z,42.40
2018-10-17T17:35:10.667Z,47.07
2018-10-17T17:37:39.828Z,45.40
2018-10-17T17:40:10.706Z,47.43
2018-10-17T17:42:39.852Z,47.43
2018-10-17T17:45:09.678Z,50.30
2018-10-17T17:47:38.991Z,50.43
2018-10-17T17:50:08.912Z,51.80
2018-10-17T17:52:38.721Z,49.80
2018-10-17T17:55:09.123Z,47.73
2018-10-17T17:57:38.529Z,49.40
2018-10-17T18:00:08.251Z,52.10
2018-10-17T18:02:40.484Z,56.70
2018-10-17T18:05:09.875Z,58.13
2018-10-17T18:07:42.270Z,55.17
2018-10-17T18:10:11.498Z,63.23
2018-10-17T18:12:40.598Z,75.40
2018-10-17T18:15:09.867Z,69.40
2018-10-17T18:17:39.080Z,54.47
2018-10-17T18:20:08.422Z,53.27
2018-10-17T18:22:38.144Z,50.30
2018-10-17T18:25:07.757Z,48.20
2018-10-17T18:27:37.315Z,50.10
2018-10-17T18:30:06.783Z,48.57
2018-10-17T18:32:36.006Z,52.20
2018-10-17T18:35:06.187Z,52.83
2018-10-17T18:37:35.437Z,60.10
2018-10-17T18:40:05.170Z,58.50
2018-10-17T18:42:34.306Z,55.53
2018-10-17T18:45:03.780Z,56.87
2018-10-17T18:47:32.947Z,53.83
2018-10-17T18:50:02.243Z,51.67
2018-10-17T18:52:31.462Z,52.00
2018-10-17T18:55:00.690Z,49.17
2018-10-17T18:57:29.864Z,50.10
2018-10-17T18:59:59.109Z,48.23
2018-10-17T19:02:28.293Z,47.87
2018-10-17T19:04:57.481Z,52.73
2018-10-17T19:07:26.659Z,52.90
2018-10-17T19:09:55.874Z,51.73
2018-10-17T19:12:25.026Z,51.50
2018-10-17T19:14:54.196Z,51.53
2018-10-17T19:17:23.369Z,50.00
2018-10-17T19:19:52.614Z,49.43
2018-10-17T19:22:21.794Z,48.30
2018-10-17T19:24:51.169Z,50.07
2018-10-17T19:27:20.176Z,49.97
2018-10-17T19:29:50.924Z,51.77
2018-10-17T19:32:20.251Z,49.17
2018-10-17T19:34:49.668Z,52.03
2018-10-17T19:37:19.157Z,52.33
2018-10-17T19:39:48.699Z,53.70
2018-10-17T19:42:18.577Z,53.73
2018-10-17T19:44:47.775Z,54.77
2018-10-17T19:47:17.032Z,56.37
2018-10-17T19:49:46.206Z,63.00
2018-10-17T19:52:15.379Z,56.57
2018-10-17T19:54:44.511Z,55.83
2018-10-17T19:57:14.213Z,59.87
2018-10-17T19:59:43.538Z,58.47
2018-10-17T20:02:12.723Z,57.97
2018-10-17T20:04:41.967Z,57.83
2018-10-17T20:07:11.131Z,59.03
2018-10-17T20:09:40.300Z,56.13
2018-10-17T20:12:09.517Z,61.27
2018-10-17T20:14:38.737Z,59.40
2018-10-17T20:17:08.205Z,61.90
2018-10-17T20:19:37.360Z,63.60
2018-10-17T20:22:09.156Z,65.63
2018-10-17T20:24:39.640Z,63.00
2018-10-17T20:27:09.773Z,60.20
2018-10-17T20:29:39.327Z,63.40
2018-10-17T20:32:09.513Z,62.07
2018-10-17T20:34:38.962Z,59.17
2018-10-17T20:37:08.404Z,60.10
2018-10-17T20:39:37.579Z,59.47
2018-10-17T20:42:07.133Z,56.47
2018-10-17T20:44:36.352Z,57.90
2018-10-17T20:47:06.036Z,58.60
2018-10-17T20:49:35.215Z,55.40
2018-10-17T20:52:04.525Z,57.13
2018-10-17T20:54:33.790Z,57.60
2018-10-17T20:57:02.986Z,58.90
2018-10-17T20:59:32.154Z,60.57
2018-10-17T21:02:01.490Z,57.23
2018-10-17T21:04:30.504Z,60.97
2018-10-17T21:06:59.701Z,58.20
2018-10-17T21:09:28.867Z,61.20
2018-10-17T21:11:58.008Z,57.53
2018-10-17T21:14:27.206Z,59.60
2018-10-17T21:16:56.359Z,57.47
2018-10-17T21:19:25.526Z,59.27
2018-10-17T21:21:54.712Z,58.50
2018-10-17T21:24:23.922Z,58.60
2018-10-17T21:26:53.443Z,60.80
2018-10-17T21:29:22.580Z,61.73
2018-10-17T21:31:51.806Z,59.73
2018-10-17T21:34:20.911Z,61.53
2018-10-17T21:36:50.159Z,59.50
2018-10-17T21:39:19.322Z,60.13
2018-10-17T21:41:48.523Z,61.27
2018-10-17T21:44:17.684Z,57.43
2018-10-17T21:46:46.866Z,59.20
2018-10-17T21:49:15.986Z,59.37
2018-10-17T21:51:45.175Z,60.20
2018-10-17T21:54:14.334Z,60.80
2018-10-17T21:56:43.875Z,64.83
2018-10-17T21:59:13.052Z,61.80
2018-10-17T22:01:42.286Z,64.77
2018-10-17T22:04:11.426Z,66.30
2018-10-17T22:06:40.622Z,68.50
2018-10-17T22:09:10.601Z,65.27
2018-10-17T22:11:39.849Z,66.13
2018-10-17T22:14:09.108Z,67.33
2018-10-17T22:16:43.419Z,65.60
2018-10-17T22:19:12.949Z,65.10
2018-10-17T22:21:41.757Z,66.10
2018-10-17T22:24:11.026Z,66.00
2018-10-17T22:26:40.178Z,65.43
2018-10-17T22:29:09.445Z,67.37
2018-10-17T22:31:38.611Z,62.27
2018-10-17T22:34:07.831Z,63.07
2018-10-17T22:36:37.014Z,59.87
2018-10-17T22:39:09.685Z,64.87
2018-10-17T22:41:39.392Z,63.40
2018-10-17T22:44:08.677Z,61.03
2018-10-17T22:46:37.794Z,65.70
2018-10-17T22:49:07.961Z,66.87
2018-10-17T22:51:37.631Z,65.63
2018-10-17T22:54:07.446Z,67.53
2018-10-17T22:56:37.170Z,68.33
2018-10-17T22:59:06.674Z,69.53
2018-10-17T23:01:36.499Z,68.97
2018-10-17T23:04:07.009Z,67.73
2018-10-17T23:06:36.204Z,68.50
2018-10-17T23:09:09.512Z,68.37
2018-10-17T23:11:39.764Z,69.33
2018-10-17T23:14:09.666Z,68.83
2018-10-17T23:16:38.893Z,70.10
2018-10-17T23:19:08.780Z,68.40
2018-10-17T23:21:37.987Z,70.90
2018-10-17T23:24:07.208Z,69.40
2018-10-17T23:26:36.345Z,64.33
2018-10-17T23:29:05.981Z,66.77
2018-10-17T23:31:35.145Z,66.63
2018-10-17T23:34:04.314Z,67.17
2018-10-17T23:36:33.457Z,63.13
2018-10-17T23:39:02.698Z,65.57
2018-10-17T23:41:31.849Z,64.00
2018-10-17T23:44:01.020Z,64.80
2018-10-17T23:46:30.199Z,65.27
2018-10-17T23:48:59.382Z,66.33
2018-10-17T23:51:28.552Z,61.97
2018-10-17T23:53:57.742Z,63.23
2018-10-17T23:56:26.917Z,64.03
2018-10-17T23:58:56.066Z,63.23
